Summersville, WV

8:08 AM EST on February 19, 2017 (GMT -0500)
Summersville | | Change Station

Elev 1932 ft 38.30 °N, 80.84 °W | Updated 9 seconds ago

Fog
Fog
44.1 °F
Feels Like 44 °F
N
2.7
Wind Variable Wind from West

Today
High -- | Low -- °F
--% Chance of Precip.
Yesterday
High -- | Low -- °F
Precip. -- in
Pressure 30.04 in
Visibility 3.0 miles
Clouds Overcast 400 ft
Windchill 44 °F
Dew Point 42 °F
Humidity 94%
Rainfall 0.62 in
Snow Depth Not available.
7:08 AM 6:06 PM
Last Quarter, 43% visible
METAR KBKW 191251Z AUTO 29007KT 3SM BR OVC004 06/06 A3003 RMK AO2 VIS 2 RWY19 SLP173 T00610056
Pressure 30.04 in
Visibility 3.0 miles
Clouds Overcast 400 ft
Windchill 44 °F
Dew Point 42 °F
Humidity 94%
Rainfall 0.62 in
Snow Depth Not available.
7:08 AM 6:06 PM
Last Quarter, 43% visible
METAR KBKW 191251Z AUTO 29007KT 3SM BR OVC004 06/06 A3003 RMK AO2 VIS 2 RWY19 SLP173 T00610056

Get Your Daily Forecast Email!

Thanks for signing up!

Be on the lookout for a verification email in your inbox.

You'll start receiving the daily forecast at 8 AM.

×

10-Day Weather Forecast

Almanac

Astronomy

Feb. 19, 2017 Rise Set
Actual Time
Civil Twilight
Nautical Twilight
Astronomical Twilight
Moon
Length of Visible Light
Length of Day
Tomorrow will be .
, % of the Moon is Illuminated

Today's Extremes

State Highs State Lows

Community

WunderPhotos

Upload Photos

1,962,540 photos uploaded!

WunderBlog® & News

Nearby

Air Quality

  Air Quality AQ Index Pollutant
Not available.

Snow Depth

Station Depth Elevation

Earthquake Activity

City Distance Mag. Time & Date
Minimum magnitude displayed is 2.5.

Coastal Water Temperatures

Place Temperature

Stations

Nearby Weather Stations

Station Location Temp. Windchill Dew Point Humidity Wind Precip. Elev Updated Type
                   

Watches & Warnings

There are currently no watches in effect.